createdAt,value
2023-04-14T00:00:06.728Z,6.12
2023-04-14T00:01:06.709Z,6.12
2023-04-14T00:02:06.772Z,6.09
2023-04-14T00:03:06.940Z,6.09
2023-04-14T00:04:06.775Z,6.09
2023-04-14T00:05:06.730Z,6.02
2023-04-14T00:06:06.658Z,5.99
2023-04-14T00:07:06.645Z,5.99
2023-04-14T00:08:06.644Z,5.97
2023-04-14T00:09:06.629Z,5.91
2023-04-14T00:10:06.605Z,5.83
2023-04-14T00:11:06.560Z,5.77
2023-04-14T00:12:06.567Z,5.73
2023-04-14T00:13:06.578Z,5.72
2023-04-14T00:14:06.551Z,5.67
2023-04-14T00:15:06.535Z,5.62
2023-04-14T00:16:06.517Z,5.61
2023-04-14T00:17:06.500Z,5.58
2023-04-14T00:18:06.583Z,5.56
2023-04-14T00:19:06.587Z,5.55
2023-04-14T00:20:06.468Z,5.54
2023-04-14T00:21:06.498Z,5.49
2023-04-14T00:22:06.439Z,5.47
2023-04-14T00:23:06.450Z,5.44
2023-04-14T00:24:06.437Z,5.41
2023-04-14T00:25:06.424Z,5.40
2023-04-14T00:26:06.442Z,5.38
2023-04-14T00:27:06.368Z,5.40
2023-04-14T00:28:06.586Z,5.41
2023-04-14T00:29:06.414Z,5.43
2023-04-14T00:30:06.383Z,5.41
2023-04-14T00:31:06.325Z,5.40
2023-04-14T00:32:06.333Z,5.40
2023-04-14T00:33:06.303Z,5.36
2023-04-14T00:34:06.290Z,5.31
2023-04-14T00:35:06.268Z,5.33
2023-04-14T00:36:06.264Z,5.36
2023-04-14T00:37:06.236Z,5.37
2023-04-14T00:38:06.241Z,5.37
2023-04-14T00:39:06.224Z,5.33
2023-04-14T00:40:06.207Z,5.23
2023-04-14T00:41:06.222Z,5.20
2023-04-14T00:42:06.170Z,5.13
2023-04-14T00:43:06.176Z,5.12
2023-04-14T00:44:06.145Z,5.13
2023-04-14T00:45:06.140Z,5.12
2023-04-14T00:46:06.200Z,5.10
2023-04-14T00:47:06.112Z,5.10
2023-04-14T00:48:06.122Z,5.05
2023-04-14T00:49:06.111Z,5.01
2023-04-14T00:50:06.093Z,5.00
2023-04-14T00:51:06.105Z,4.98
2023-04-14T00:52:06.066Z,5.00
2023-04-14T00:53:06.115Z,4.98
2023-04-14T00:54:06.042Z,5.01
2023-04-14T00:55:06.052Z,5.02
2023-04-14T00:56:06.006Z,5.05
2023-04-14T00:57:06.004Z,5.05
2023-04-14T00:58:06.064Z,5.07
2023-04-14T00:59:05.979Z,5.10
2023-04-14T01:00:06.023Z,5.12
2023-04-14T01:01:05.920Z,5.13
2023-04-14T01:02:05.965Z,5.13
2023-04-14T01:03:06.001Z,5.16
2023-04-14T01:04:05.984Z,5.15
2023-04-14T01:05:06.021Z,5.19
2023-04-14T01:06:05.862Z,5.20
2023-04-14T01:07:05.835Z,5.26
2023-04-14T01:08:05.849Z,5.23
2023-04-14T01:09:05.828Z,5.23
2023-04-14T01:10:05.881Z,5.20
2023-04-14T01:11:05.794Z,5.18
2023-04-14T01:12:05.779Z,5.15
2023-04-14T01:13:05.774Z,5.10
2023-04-14T01:14:05.766Z,5.00
2023-04-14T01:15:05.829Z,4.95
2023-04-14T01:16:05.849Z,4.90
2023-04-14T01:17:05.770Z,4.87
2023-04-14T01:18:05.819Z,4.82
2023-04-14T01:19:05.776Z,4.76
2023-04-14T01:20:05.740Z,4.76
2023-04-14T01:21:05.680Z,4.76
2023-04-14T01:22:05.724Z,4.75
2023-04-14T01:23:05.701Z,4.76
2023-04-14T01:24:05.715Z,4.76
2023-04-14T01:25:05.687Z,4.79
2023-04-14T01:26:05.682Z,4.79
2023-04-14T01:27:05.672Z,4.79
2023-04-14T01:28:05.656Z,4.82
2023-04-14T01:29:05.653Z,4.79
2023-04-14T01:30:05.655Z,4.75
2023-04-14T01:31:05.699Z,4.71
2023-04-14T01:32:05.556Z,4.67
2023-04-14T01:33:05.544Z,4.66
2023-04-14T01:34:05.510Z,4.63
2023-04-14T01:35:05.689Z,4.57
2023-04-14T01:36:05.457Z,4.56
2023-04-14T01:37:05.452Z,4.58
2023-04-14T01:38:05.433Z,4.57
2023-04-14T01:39:05.441Z,4.58
2023-04-14T01:40:05.423Z,4.60
2023-04-14T01:41:05.389Z,4.61
2023-04-14T01:42:05.391Z,4.66
2023-04-14T01:43:05.365Z,4.66
2023-04-14T01:44:05.368Z,4.66
2023-04-14T01:45:05.355Z,4.64
2023-04-14T01:46:05.441Z,4.66
2023-04-14T01:47:05.351Z,4.66
2023-04-14T01:48:05.361Z,4.64
2023-04-14T01:49:05.310Z,4.61
2023-04-14T01:50:05.286Z,4.61
2023-04-14T01:51:05.267Z,4.60
2023-04-14T01:52:05.248Z,4.60
2023-04-14T01:53:05.278Z,4.60
2023-04-14T01:54:05.242Z,4.61
2023-04-14T01:55:05.209Z,4.61
2023-04-14T01:56:05.223Z,4.58
2023-04-14T01:57:05.175Z,4.60
2023-04-14T01:58:05.191Z,4.57
2023-04-14T01:59:05.152Z,4.58
2023-04-14T02:00:05.147Z,4.57
2023-04-14T02:01:05.235Z,4.56
2023-04-14T02:02:05.184Z,4.52
2023-04-14T02:03:05.234Z,4.52
2023-04-14T02:04:05.261Z,4.52
2023-04-14T02:05:05.174Z,4.50
2023-04-14T02:06:05.160Z,4.50
2023-04-14T02:07:05.111Z,4.50
2023-04-14T02:08:05.128Z,4.50
2023-04-14T02:09:05.125Z,4.49
2023-04-14T02:10:05.200Z,4.50
2023-04-14T02:11:05.172Z,4.48
2023-04-14T02:12:05.101Z,4.46
2023-04-14T02:13:05.100Z,4.46
2023-04-14T02:14:05.008Z,4.43
2023-04-14T02:15:05.100Z,4.43
2023-04-14T02:16:04.946Z,4.39
2023-04-14T02:17:04.984Z,4.38
2023-04-14T02:18:04.928Z,4.39
2023-04-14T02:19:04.935Z,4.34
2023-04-14T02:20:04.861Z,4.31
2023-04-14T02:21:04.857Z,4.25
2023-04-14T02:22:04.851Z,4.22
2023-04-14T02:23:04.832Z,4.21
2023-04-14T02:24:04.849Z,4.18
2023-04-14T02:25:04.814Z,4.16
2023-04-14T02:26:04.815Z,4.16
2023-04-14T02:27:04.782Z,4.10
2023-04-14T02:28:04.766Z,4.09
2023-04-14T02:29:04.789Z,4.04
2023-04-14T02:30:04.731Z,4.00
2023-04-14T02:31:04.738Z,4.02
2023-04-14T02:32:04.722Z,4.04
2023-04-14T02:33:04.815Z,4.07
2023-04-14T02:34:04.686Z,4.10
2023-04-14T02:35:04.811Z,4.12
2023-04-14T02:36:04.730Z,4.14
2023-04-14T02:37:04.641Z,4.14
2023-04-14T02:38:04.629Z,4.13
2023-04-14T02:39:04.639Z,4.13
2023-04-14T02:40:04.836Z,4.13
2023-04-14T02:41:04.605Z,4.12
2023-04-14T02:42:04.620Z,4.16
2023-04-14T02:43:04.602Z,4.14
2023-04-14T02:44:04.667Z,4.13
2023-04-14T02:45:04.534Z,4.10
2023-04-14T02:46:04.680Z,4.03
2023-04-14T02:47:04.520Z,4.00
2023-04-14T02:48:04.536Z,4.00
2023-04-14T02:49:04.663Z,3.96
2023-04-14T02:50:04.574Z,3.99
2023-04-14T02:51:04.471Z,3.95
2023-04-14T02:52:04.440Z,3.92
2023-04-14T02:53:04.436Z,3.91
2023-04-14T02:54:04.447Z,3.88
2023-04-14T02:55:04.403Z,3.89
2023-04-14T02:56:04.399Z,3.89
2023-04-14T02:57:04.398Z,3.91
2023-04-14T02:58:04.365Z,3.91
2023-04-14T02:59:04.363Z,3.94
2023-04-14T03:00:04.360Z,3.94
2023-04-14T03:01:04.406Z,3.94
2023-04-14T03:02:04.518Z,3.94
2023-04-14T03:03:04.454Z,3.89
2023-04-14T03:04:04.316Z,3.89
2023-04-14T03:05:04.275Z,3.86
2023-04-14T03:06:04.289Z,3.88
2023-04-14T03:07:04.275Z,3.89
2023-04-14T03:08:04.227Z,3.89
2023-04-14T03:09:04.244Z,3.91
2023-04-14T03:10:04.208Z,3.94
2023-04-14T03:11:04.197Z,3.95
2023-04-14T03:12:04.191Z,3.95
2023-04-14T03:13:04.361Z,3.96
2023-04-14T03:14:04.149Z,3.92
2023-04-14T03:15:04.186Z,3.85
2023-04-14T03:16:04.217Z,3.85
2023-04-14T03:17:04.141Z,3.84
2023-04-14T03:18:04.257Z,3.82
2023-04-14T03:19:04.086Z,3.84
2023-04-14T03:20:04.085Z,3.88
2023-04-14T03:21:04.058Z,3.89
2023-04-14T03:22:04.033Z,3.86
2023-04-14T03:23:04.025Z,3.91
2023-04-14T03:24:04.010Z,3.91
2023-04-14T03:25:04.023Z,3.94
2023-04-14T03:26:03.992Z,3.96
2023-04-14T03:27:03.989Z,3.96
2023-04-14T03:28:03.963Z,3.99
2023-04-14T03:29:04.016Z,4.00
2023-04-14T03:30:03.994Z,4.02
2023-04-14T03:31:03.989Z,4.04
2023-04-14T03:32:03.912Z,4.06
2023-04-14T03:33:03.993Z,4.06
2023-04-14T03:34:04.040Z,4.07
2023-04-14T03:35:03.920Z,4.07
2023-04-14T03:36:03.919Z,4.07
2023-04-14T03:37:03.878Z,4.07
2023-04-14T03:38:03.850Z,4.07
2023-04-14T03:39:03.850Z,4.10
2023-04-14T03:40:03.823Z,4.12
2023-04-14T03:41:03.794Z,4.13
2023-04-14T03:42:03.813Z,4.14
2023-04-14T03:43:03.764Z,4.18
2023-04-14T03:44:03.761Z,4.20
2023-04-14T03:45:03.764Z,4.16
2023-04-14T03:46:03.831Z,4.16
2023-04-14T03:47:03.904Z,4.14
2023-04-14T03:48:03.765Z,4.16
2023-04-14T03:49:03.682Z,4.13
2023-04-14T03:50:03.685Z,4.13
2023-04-14T03:51:03.677Z,4.13
2023-04-14T03:52:03.638Z,4.13
2023-04-14T03:53:03.630Z,4.13
2023-04-14T03:54:03.625Z,4.12
2023-04-14T03:55:03.641Z,4.12
2023-04-14T03:56:03.590Z,4.12
2023-04-14T03:57:03.569Z,4.10
2023-04-14T03:58:03.559Z,4.12
2023-04-14T03:59:03.553Z,4.13
2023-04-14T04:00:03.583Z,4.14
2023-04-14T04:01:03.534Z,4.16
2023-04-14T04:02:03.589Z,4.18
2023-04-14T04:03:03.701Z,4.18
2023-04-14T04:04:03.557Z,4.16
2023-04-14T04:05:03.526Z,4.16
2023-04-14T04:06:03.453Z,4.14
2023-04-14T04:07:03.477Z,4.14
2023-04-14T04:08:03.456Z,4.14
2023-04-14T04:09:03.542Z,4.14
2023-04-14T04:10:03.429Z,4.13
2023-04-14T04:11:03.397Z,4.10
2023-04-14T04:12:03.405Z,4.09
2023-04-14T04:13:03.366Z,4.07
2023-04-14T04:14:03.363Z,4.06
2023-04-14T04:15:03.372Z,4.06
2023-04-14T04:16:03.441Z,4.03
2023-04-14T04:17:03.411Z,4.03
2023-04-14T04:18:03.361Z,4.02
2023-04-14T04:19:03.320Z,3.99
2023-04-14T04:20:03.372Z,3.96
2023-04-14T04:21:03.263Z,3.92
2023-04-14T04:22:03.243Z,3.91
2023-04-14T04:23:03.237Z,3.86
2023-04-14T04:24:03.226Z,3.86
2023-04-14T04:25:03.244Z,3.85
2023-04-14T04:26:03.200Z,3.82
2023-04-14T04:27:03.183Z,3.82
2023-04-14T04:28:03.162Z,3.77
2023-04-14T04:29:03.375Z,3.77
2023-04-14T04:30:03.145Z,3.77
2023-04-14T04:31:03.130Z,3.78
2023-04-14T04:32:03.161Z,3.77
2023-04-14T04:33:03.169Z,3.78
2023-04-14T04:34:03.124Z,3.78
2023-04-14T04:35:03.070Z,3.81
2023-04-14T04:36:03.082Z,3.81
2023-04-14T04:37:03.054Z,3.84
2023-04-14T04:38:03.028Z,3.85
2023-04-14T04:39:03.264Z,3.85
2023-04-14T04:40:10.229Z,3.86
2023-04-14T04:41:03.010Z,3.92
2023-04-14T04:42:03.026Z,3.96
2023-04-14T04:43:02.980Z,4.02
2023-04-14T04:44:02.951Z,4.06
2023-04-14T04:45:02.980Z,4.12
2023-04-14T04:46:02.964Z,4.20
2023-04-14T04:47:02.923Z,4.24
2023-04-14T04:48:02.996Z,4.27
2023-04-14T04:49:03.323Z,4.27
2023-04-14T04:50:02.882Z,4.24
2023-04-14T04:51:02.872Z,4.18
2023-04-14T04:52:02.842Z,4.13
2023-04-14T04:53:05.654Z,4.04
2023-04-14T04:54:02.920Z,4.02
2023-04-14T04:55:02.866Z,3.96
2023-04-14T04:56:02.813Z,3.95
2023-04-14T04:57:02.783Z,3.94
2023-04-14T04:58:02.765Z,3.94
2023-04-14T04:59:02.943Z,3.94
2023-04-14T05:00:02.766Z,3.95
2023-04-14T05:01:02.768Z,3.99
2023-04-14T05:02:02.807Z,3.95
2023-04-14T05:03:02.848Z,3.95
2023-04-14T05:04:02.698Z,3.96
2023-04-14T05:05:03.928Z,3.99
2023-04-14T05:06:02.662Z,4.00
2023-04-14T05:07:02.642Z,4.03
2023-04-14T05:08:02.637Z,4.04
2023-04-14T05:09:03.003Z,4.06
2023-04-14T05:10:02.656Z,4.04
2023-04-14T05:11:02.580Z,4.09
2023-04-14T05:12:02.573Z,4.12
2023-04-14T05:13:02.710Z,4.14
2023-04-14T05:14:02.556Z,4.16
2023-04-14T05:15:02.556Z,4.18
2023-04-14T05:16:02.724Z,4.20
2023-04-14T05:17:02.701Z,4.21
2023-04-14T05:18:02.778Z,4.22
2023-04-14T05:19:02.891Z,4.24
2023-04-14T05:20:02.482Z,4.25
2023-04-14T05:21:02.491Z,4.27
2023-04-14T05:22:02.453Z,4.28
2023-04-14T05:23:02.438Z,4.31
2023-04-14T05:24:02.428Z,4.31
2023-04-14T05:25:02.436Z,4.28
2023-04-14T05:26:22.283Z,4.28
2023-04-14T05:27:13.848Z,4.24
2023-04-14T05:28:03.374Z,4.22
2023-04-14T05:29:02.561Z,4.24
2023-04-14T05:30:02.404Z,4.24
2023-04-14T05:31:02.370Z,4.22
2023-04-14T05:32:02.348Z,4.24
2023-04-14T05:33:02.345Z,4.22
2023-04-14T05:34:02.728Z,4.21
2023-04-14T05:35:02.321Z,4.20
2023-04-14T05:36:02.452Z,4.20
2023-04-14T05:37:02.262Z,4.16
2023-04-14T05:38:02.238Z,4.16
2023-04-14T05:39:02.253Z,4.12
2023-04-14T05:40:02.230Z,4.06
2023-04-14T05:41:02.261Z,4.04
2023-04-14T05:42:02.190Z,4.02
2023-04-14T05:43:02.252Z,4.03
2023-04-14T05:44:02.350Z,4.06
2023-04-14T05:45:02.184Z,4.07
2023-04-14T05:46:02.134Z,4.09
2023-04-14T05:47:02.270Z,4.13
2023-04-14T05:48:02.211Z,4.14
2023-04-14T05:49:02.254Z,4.12
2023-04-14T05:50:02.114Z,4.10
2023-04-14T05:51:02.114Z,4.10
2023-04-14T05:52:02.071Z,4.09
2023-04-14T05:53:02.047Z,4.10
2023-04-14T05:54:02.437Z,4.12
2023-04-14T05:55:02.047Z,4.10
2023-04-14T05:56:01.996Z,4.13
2023-04-14T05:57:01.991Z,4.10
2023-04-14T05:58:02.042Z,4.10
2023-04-14T05:59:01.962Z,4.12
2023-04-14T06:00:01.971Z,4.07
2023-04-14T06:01:01.940Z,4.10
2023-04-14T06:02:02.011Z,4.12
2023-04-14T06:03:02.127Z,4.10
2023-04-14T06:04:02.522Z,4.13
2023-04-14T06:05:02.011Z,4.12
2023-04-14T06:06:01.874Z,4.16
2023-04-14T06:07:01.862Z,4.20
2023-04-14T06:08:01.843Z,4.22
2023-04-14T06:09:02.149Z,4.22
2023-04-14T06:10:01.834Z,4.25
2023-04-14T06:11:01.836Z,4.30
2023-04-14T06:12:01.817Z,4.31
2023-04-14T06:13:01.772Z,4.25
2023-04-14T06:14:02.166Z,4.21
2023-04-14T06:15:01.783Z,4.18
2023-04-14T06:16:01.869Z,4.16
2023-04-14T06:17:01.733Z,4.16
2023-04-14T06:18:01.847Z,4.20
2023-04-14T06:19:02.012Z,4.18
2023-04-14T06:20:01.733Z,4.24
2023-04-14T06:21:01.671Z,4.24
2023-04-14T06:22:01.656Z,4.27
2023-04-14T06:23:01.646Z,4.25
2023-04-14T06:24:01.671Z,4.18
2023-04-14T06:25:01.657Z,4.14
2023-04-14T06:26:01.613Z,4.10
2023-04-14T06:27:01.631Z,4.06
2023-04-14T06:28:01.572Z,4.04
2023-04-14T06:29:01.890Z,4.04
2023-04-14T06:30:01.603Z,4.04
2023-04-14T06:31:01.535Z,4.04
2023-04-14T06:32:01.617Z,3.96
2023-04-14T06:33:01.574Z,3.89
2023-04-14T06:34:01.506Z,3.88
2023-04-14T06:35:01.503Z,3.94
2023-04-14T06:36:01.475Z,4.02
2023-04-14T06:37:01.458Z,4.10
2023-04-14T06:38:01.450Z,4.13
2023-04-14T06:39:01.777Z,4.16
2023-04-14T06:40:01.451Z,4.20
2023-04-14T06:41:01.405Z,4.25
2023-04-14T06:42:01.553Z,4.30
2023-04-14T06:43:01.434Z,4.32
2023-04-14T06:44:01.365Z,4.39
2023-04-14T06:45:01.373Z,4.48
2023-04-14T06:46:01.389Z,4.50
2023-04-14T06:47:01.352Z,4.58
2023-04-14T06:48:01.391Z,4.57
2023-04-14T06:49:01.435Z,4.53
2023-04-14T06:50:01.326Z,4.53
2023-04-14T06:51:01.290Z,4.58
2023-04-14T06:52:01.274Z,4.63
2023-04-14T06:53:01.283Z,4.67
2023-04-14T06:54:01.514Z,4.70
2023-04-14T06:55:01.316Z,4.74
2023-04-14T06:56:01.214Z,4.78
2023-04-14T06:57:01.388Z,4.83
2023-04-14T06:58:01.196Z,4.89
2023-04-14T06:59:01.177Z,4.92
2023-04-14T07:00:01.189Z,4.95
2023-04-14T07:01:01.161Z,4.98
2023-04-14T07:02:01.247Z,5.02
2023-04-14T07:03:01.231Z,5.04
2023-04-14T07:04:01.289Z,5.08
2023-04-14T07:05:01.148Z,5.07
2023-04-14T07:06:01.102Z,5.02
2023-04-14T07:07:01.063Z,5.00
2023-04-14T07:08:01.073Z,5.04
2023-04-14T07:09:01.055Z,5.05
2023-04-14T07:10:01.137Z,5.08
2023-04-14T07:11:01.019Z,5.15
2023-04-14T07:12:01.003Z,5.18
2023-04-14T07:13:01.001Z,5.18
2023-04-14T07:14:01.164Z,5.18
2023-04-14T07:15:01.038Z,5.19
2023-04-14T07:16:01.000Z,5.16
2023-04-14T07:17:00.945Z,5.16
2023-04-14T07:18:00.972Z,5.18
2023-04-14T07:19:00.928Z,5.18
2023-04-14T07:20:00.940Z,5.20
2023-04-14T07:21:00.878Z,5.22
2023-04-14T07:22:00.861Z,5.26
2023-04-14T07:23:00.839Z,5.29
2023-04-14T07:24:01.039Z,5.28
2023-04-14T07:25:00.854Z,5.29
2023-04-14T07:26:00.819Z,5.29
2023-04-14T07:27:00.792Z,5.28
2023-04-14T07:28:03.548Z,5.26
2023-04-14T07:29:00.759Z,5.28
2023-04-14T07:30:00.777Z,5.31
2023-04-14T07:31:00.789Z,5.34
2023-04-14T07:32:00.733Z,5.36
2023-04-14T07:33:00.783Z,5.37
2023-04-14T07:34:00.877Z,5.37
2023-04-14T07:35:00.741Z,5.37
2023-04-14T07:36:03.577Z,5.41
2023-04-14T07:37:00.647Z,5.46
2023-04-14T07:38:00.669Z,5.49
2023-04-14T07:39:00.632Z,5.52
2023-04-14T07:40:00.638Z,5.55
2023-04-14T07:41:00.608Z,5.61
2023-04-14T07:42:00.592Z,5.64
2023-04-14T07:43:00.579Z,5.61
2023-04-14T07:44:00.811Z,5.58
2023-04-14T07:45:00.602Z,5.59
2023-04-14T07:46:00.570Z,5.65
2023-04-14T07:47:00.537Z,5.69
2023-04-14T07:48:00.651Z,5.70
2023-04-14T07:49:00.502Z,5.73
2023-04-14T07:50:00.519Z,5.77
2023-04-14T07:51:00.475Z,5.80
2023-04-14T07:52:00.462Z,5.84
2023-04-14T07:53:00.452Z,5.91
2023-04-14T07:54:00.669Z,5.90
2023-04-14T07:55:00.438Z,5.84
2023-04-14T07:56:00.493Z,5.83
2023-04-14T07:57:00.496Z,5.88
2023-04-14T07:58:00.387Z,5.88
2023-04-14T07:59:00.685Z,5.84
2023-04-14T08:00:00.415Z,5.83
2023-04-14T08:01:00.349Z,5.81
2023-04-14T08:02:00.430Z,5.81
2023-04-14T08:03:00.518Z,5.88
2023-04-14T08:04:00.550Z,5.94
2023-04-14T08:05:00.357Z,6.01
2023-04-14T08:06:00.287Z,6.07
2023-04-14T08:07:00.264Z,6.12
2023-04-14T08:08:00.257Z,6.17
2023-04-14T08:09:00.636Z,6.17
2023-04-14T08:10:00.231Z,6.19
2023-04-14T08:11:00.244Z,6.29
2023-04-14T08:12:00.202Z,6.32
2023-04-14T08:13:02.317Z,6.36
2023-04-14T08:14:00.176Z,6.41
2023-04-14T08:15:00.172Z,6.47
2023-04-14T08:16:00.205Z,6.54
2023-04-14T08:17:00.139Z,6.64
2023-04-14T08:18:00.207Z,6.70
2023-04-14T08:19:00.452Z,6.74
2023-04-14T08:20:00.098Z,6.77
2023-04-14T08:21:00.103Z,6.78
2023-04-14T08:22:00.076Z,6.80
2023-04-14T08:23:00.049Z,6.86
2023-04-14T08:24:00.070Z,6.89
2023-04-14T08:25:00.098Z,6.86
2023-04-14T08:26:00.034Z,6.85
2023-04-14T08:26:59.994Z,6.80
2023-04-14T08:28:00.002Z,6.82
2023-04-14T08:29:00.316Z,6.87
2023-04-14T08:30:00.010Z,6.93
2023-04-14T08:30:59.968Z,6.96
2023-04-14T08:31:59.963Z,7.00
2023-04-14T08:32:59.936Z,7.03
2023-04-14T08:33:59.905Z,7.04
2023-04-14T08:35:37.566Z,7.08
2023-04-14T08:36:01.056Z,7.10
2023-04-14T08:36:59.867Z,7.05
2023-04-14T08:37:59.868Z,7.05
2023-04-14T08:39:00.169Z,7.08
2023-04-14T08:39:59.857Z,7.08
2023-04-14T08:40:59.830Z,7.11
2023-04-14T08:41:59.848Z,7.15
2023-04-14T08:42:59.784Z,7.23
2023-04-14T08:43:59.781Z,7.31
2023-04-14T08:44:59.769Z,7.39
2023-04-14T08:45:59.786Z,7.44
2023-04-14T08:46:59.734Z,7.53
2023-04-14T08:47:59.826Z,7.59
2023-04-14T08:48:59.882Z,7.66
2023-04-14T08:49:59.704Z,7.70
2023-04-14T08:50:59.752Z,7.77
2023-04-14T08:51:59.676Z,7.81
2023-04-14T08:52:59.656Z,7.87
2023-04-14T08:53:59.999Z,7.90
2023-04-14T08:54:59.634Z,7.84
2023-04-14T08:55:59.649Z,7.84
2023-04-14T08:56:59.611Z,7.85
2023-04-14T08:57:59.602Z,7.85
2023-04-14T08:58:59.583Z,7.87
2023-04-14T08:59:59.579Z,7.90
2023-04-14T09:00:59.624Z,7.95
2023-04-14T09:01:59.742Z,8.02
2023-04-14T09:02:59.654Z,8.09
2023-04-14T09:04:00.031Z,8.14
2023-04-14T09:04:59.716Z,8.21
2023-04-14T09:05:59.539Z,8.28
2023-04-14T09:06:59.489Z,8.36
2023-04-14T09:07:59.479Z,8.44
2023-04-14T09:08:59.454Z,8.46
2023-04-14T09:09:59.456Z,8.49
2023-04-14T09:10:59.419Z,8.52
2023-04-14T09:11:59.411Z,8.57
2023-04-14T09:12:59.425Z,8.61
2023-04-14T09:13:59.715Z,8.63
2023-04-14T09:14:59.397Z,8.66
2023-04-14T09:15:59.358Z,8.74
2023-04-14T09:16:59.410Z,8.77
2023-04-14T09:17:59.412Z,8.79
2023-04-14T09:19:06.909Z,8.84
2023-04-14T09:20:34.537Z,8.89
2023-04-14T09:21:29.984Z,8.95
2023-04-14T09:22:00.269Z,8.99
2023-04-14T09:22:59.262Z,9.03
2023-04-14T09:23:59.472Z,9.11
2023-04-14T09:24:59.253Z,9.13
2023-04-14T09:25:59.242Z,9.13
2023-04-14T09:26:59.196Z,9.16
2023-04-14T09:27:59.197Z,9.24
2023-04-14T09:28:59.379Z,9.30
2023-04-14T09:29:59.190Z,9.31
2023-04-14T09:30:59.219Z,9.36
2023-04-14T09:31:59.142Z,9.42
2023-04-14T09:32:59.165Z,9.45
2023-04-14T09:33:59.180Z,9.48
2023-04-14T09:34:59.090Z,9.52
2023-04-14T09:35:59.103Z,9.55
2023-04-14T09:36:59.069Z,9.59
2023-04-14T09:37:59.065Z,9.63
2023-04-14T09:38:59.036Z,9.67
2023-04-14T09:39:59.049Z,9.69
2023-04-14T09:40:59.036Z,9.70
2023-04-14T09:41:59.032Z,9.76
2023-04-14T09:42:58.981Z,9.80
2023-04-14T09:43:59.218Z,9.87
2023-04-14T09:44:59.049Z,9.94
2023-04-14T09:45:59.000Z,9.97
2023-04-14T09:46:58.947Z,9.99
2023-04-14T09:47:58.935Z,10.05
2023-04-14T09:48:58.912Z,10.13
2023-04-14T09:49:58.889Z,10.20
2023-04-14T09:50:58.896Z,10.23
2023-04-14T09:51:58.867Z,10.27
2023-04-14T09:52:58.852Z,10.28
2023-04-14T09:53:58.859Z,10.38
2023-04-14T09:54:58.830Z,10.42
2023-04-14T09:55:58.829Z,10.49
2023-04-14T09:56:58.793Z,10.57
2023-04-14T09:57:58.797Z,10.62
2023-04-14T09:58:58.869Z,10.65
2023-04-14T09:59:58.742Z,10.72
2023-04-14T10:00:58.782Z,10.80
2023-04-14T10:01:58.868Z,10.86
2023-04-14T10:02:58.808Z,10.92
2023-04-14T10:03:58.702Z,10.92
2023-04-14T10:04:58.698Z,10.97
2023-04-14T10:05:58.700Z,11.01
2023-04-14T10:06:58.660Z,11.04
2023-04-14T10:07:58.649Z,11.05
2023-04-14T10:08:59.184Z,11.07
2023-04-14T10:09:58.622Z,11.10
2023-04-14T10:10:58.612Z,11.13
2023-04-14T10:11:58.586Z,11.16
2023-04-14T10:12:58.585Z,11.19
2023-04-14T10:13:58.580Z,11.22
2023-04-14T10:14:58.548Z,11.26
2023-04-14T10:15:58.582Z,11.31
2023-04-14T10:16:58.545Z,11.35
2023-04-14T10:17:58.537Z,11.40
2023-04-14T10:18:58.721Z,11.44
2023-04-14T10:19:58.503Z,11.48
2023-04-14T10:20:58.498Z,11.52
2023-04-14T10:21:58.456Z,11.52
2023-04-14T10:22:58.457Z,11.56
2023-04-14T10:23:58.576Z,11.56
2023-04-14T10:24:58.424Z,11.60
2023-04-14T10:25:58.426Z,11.63
2023-04-14T10:26:58.398Z,11.65
2023-04-14T10:27:58.378Z,11.70
2023-04-14T10:28:58.564Z,11.73
2023-04-14T10:29:58.349Z,11.76
2023-04-14T10:30:58.360Z,11.81
2023-04-14T10:31:58.483Z,11.85
2023-04-14T10:32:58.388Z,11.91
2023-04-14T10:33:58.319Z,11.96
2023-04-14T10:34:58.292Z,12.02
2023-04-14T10:35:58.293Z,12.08
2023-04-14T10:36:58.267Z,12.15
2023-04-14T10:37:58.249Z,12.20
2023-04-14T10:38:58.344Z,12.21
2023-04-14T10:39:58.230Z,12.25
2023-04-14T10:41:05.360Z,12.25
2023-04-14T10:41:58.194Z,12.29
2023-04-14T10:42:58.187Z,12.30
2023-04-14T10:43:58.184Z,12.33
2023-04-14T10:44:58.162Z,12.37
2023-04-14T10:45:58.192Z,12.44
2023-04-14T10:46:58.179Z,12.51
2023-04-14T10:47:58.198Z,12.61
2023-04-14T10:48:58.112Z,12.69
2023-04-14T10:49:58.096Z,12.65
2023-04-14T10:50:58.073Z,12.66
2023-04-14T10:51:58.082Z,12.69
2023-04-14T10:52:58.077Z,12.73
2023-04-14T10:53:58.036Z,12.76
2023-04-14T10:54:58.036Z,12.78
2023-04-14T10:55:58.018Z,12.80
2023-04-14T10:56:58.021Z,12.83
2023-04-14T10:57:57.981Z,12.84
2023-04-14T10:58:58.184Z,12.88
2023-04-14T10:59:57.953Z,12.91
2023-04-14T11:00:57.968Z,12.95
2023-04-14T11:01:57.967Z,13.01
2023-04-14T11:02:58.087Z,13.03
2023-04-14T11:03:58.058Z,13.06
2023-04-14T11:04:57.899Z,13.11
2023-04-14T11:05:57.877Z,13.06
2023-04-14T11:06:57.885Z,13.02
2023-04-14T11:07:59.905Z,12.99
2023-04-14T11:08:57.835Z,13.05
2023-04-14T11:09:57.823Z,13.11
2023-04-14T11:10:57.817Z,13.17
2023-04-14T11:11:57.833Z,13.19
2023-04-14T11:12:57.797Z,13.26
2023-04-14T11:13:57.801Z,13.28
2023-04-14T11:14:57.775Z,13.30
2023-04-14T11:15:57.747Z,13.36
2023-04-14T11:17:03.707Z,13.40
2023-04-14T11:17:58.743Z,13.45
2023-04-14T11:18:57.720Z,13.46
2023-04-14T11:19:57.685Z,13.47
2023-04-14T11:20:57.676Z,13.46
2023-04-14T11:21:57.722Z,13.46
2023-04-14T11:22:57.669Z,13.52
2023-04-14T11:23:57.642Z,13.55
2023-04-14T11:24:57.625Z,13.60
2023-04-14T11:25:57.633Z,13.65
2023-04-14T11:26:57.615Z,13.70
2023-04-14T11:27:57.585Z,13.73
2023-04-14T11:28:57.564Z,13.75
2023-04-14T11:29:57.554Z,13.73
2023-04-14T11:30:57.531Z,13.78
2023-04-14T11:31:57.561Z,13.85
2023-04-14T11:32:57.631Z,13.86
2023-04-14T11:33:57.651Z,13.91
2023-04-14T11:34:57.511Z,13.91
2023-04-14T11:35:57.481Z,13.91
2023-04-14T11:36:57.596Z,13.86
2023-04-14T11:37:57.442Z,13.87
2023-04-14T11:38:57.436Z,13.93
2023-04-14T11:39:57.412Z,14.03
2023-04-14T11:40:57.420Z,14.11
2023-04-14T11:41:57.422Z,14.18
2023-04-14T11:42:57.385Z,14.26
2023-04-14T11:43:57.369Z,14.30
2023-04-14T11:44:57.352Z,14.30
2023-04-14T11:45:57.379Z,14.28
2023-04-14T11:46:57.343Z,14.38
2023-04-14T11:47:57.376Z,14.44
2023-04-14T11:48:57.300Z,14.51
2023-04-14T11:49:57.292Z,14.53
2023-04-14T11:50:57.273Z,14.56
2023-04-14T11:51:57.259Z,14.63
2023-04-14T11:52:57.296Z,14.68
2023-04-14T11:53:57.221Z,14.74
2023-04-14T11:54:57.243Z,14.79
2023-04-14T11:55:57.203Z,14.82
2023-04-14T11:56:57.201Z,14.89
2023-04-14T11:57:57.289Z,14.90
2023-04-14T11:58:57.168Z,14.90
2023-04-14T11:59:57.145Z,14.93
2023-04-14T12:00:57.136Z,14.94
2023-04-14T12:01:57.160Z,14.96
2023-04-14T12:02:57.321Z,14.94
2023-04-14T12:03:57.258Z,14.94
2023-04-14T12:04:57.399Z,15.00
2023-04-14T12:05:57.076Z,15.04
2023-04-14T12:06:57.052Z,15.11
2023-04-14T12:07:57.070Z,15.14
2023-04-14T12:08:57.043Z,15.18
2023-04-14T12:09:57.020Z,15.23
2023-04-14T12:10:56.996Z,15.26
2023-04-14T12:11:56.992Z,15.27
2023-04-14T12:12:56.994Z,15.22
2023-04-14T12:13:57.000Z,15.10
2023-04-14T12:14:56.950Z,15.12
2023-04-14T12:15:56.954Z,15.11
2023-04-14T12:16:56.930Z,15.18
2023-04-14T12:17:57.118Z,15.26
2023-04-14T12:18:56.903Z,15.33
2023-04-14T12:19:56.878Z,15.35
2023-04-14T12:20:56.914Z,15.26
2023-04-14T12:21:56.879Z,15.23
2023-04-14T12:22:56.861Z,15.27
2023-04-14T12:23:56.822Z,15.41
2023-04-14T12:24:56.811Z,15.48
2023-04-14T12:25:56.792Z,15.60
2023-04-14T12:26:56.790Z,15.50
2023-04-14T12:27:57.379Z,15.54
2023-04-14T12:28:56.752Z,15.47
2023-04-14T12:29:56.728Z,15.30
2023-04-14T12:30:56.729Z,15.18
2023-04-14T12:31:56.786Z,15.08
2023-04-14T12:32:56.765Z,15.04
2023-04-14T12:33:56.874Z,14.99
2023-04-14T12:34:56.688Z,14.93
2023-04-14T12:35:56.660Z,14.85
2023-04-14T12:36:56.656Z,14.79
2023-04-14T12:37:56.649Z,14.74
2023-04-14T12:38:56.674Z,14.77
2023-04-14T12:39:56.627Z,14.79
2023-04-14T12:40:56.607Z,14.89
2023-04-14T12:41:56.570Z,14.96
2023-04-14T12:42:56.580Z,15.11
2023-04-14T12:43:56.542Z,15.26
2023-04-14T12:44:56.559Z,15.32
2023-04-14T12:45:56.528Z,15.17
2023-04-14T12:46:56.593Z,15.05
2023-04-14T12:47:56.701Z,14.92
2023-04-14T12:48:56.490Z,14.81
2023-04-14T12:49:56.513Z,14.78
2023-04-14T12:50:56.452Z,14.70
2023-04-14T12:51:56.466Z,14.56
2023-04-14T12:52:56.493Z,14.49
2023-04-14T12:53:56.412Z,14.51
2023-04-14T12:54:56.403Z,14.48
2023-04-14T12:55:56.383Z,14.51
2023-04-14T12:56:56.374Z,14.52
2023-04-14T12:57:56.394Z,14.52
2023-04-14T12:58:56.357Z,14.53
2023-04-14T12:59:56.339Z,14.56
2023-04-14T13:00:56.343Z,14.59
2023-04-14T13:01:56.423Z,14.62
2023-04-14T13:02:56.492Z,14.59
2023-04-14T13:03:56.511Z,14.61
2023-04-14T13:04:56.271Z,14.59
2023-04-14T13:05:56.251Z,14.55
2023-04-14T13:06:56.240Z,14.48
2023-04-14T13:07:56.249Z,14.49
2023-04-14T13:08:56.227Z,14.52
2023-04-14T13:09:56.212Z,14.55
2023-04-14T13:10:56.203Z,14.55